createdAt,value
2023-01-29T03:10:16.415Z,102087.72
2023-01-29T03:12:48.507Z,102140.91
2023-01-29T03:15:20.574Z,102189.97
2023-01-29T03:18:07.298Z,102055.00
2023-01-29T03:20:39.888Z,102054.00
2023-01-29T03:23:14.204Z,102151.16
2023-01-29T03:25:44.721Z,102101.34
2023-01-29T03:28:15.872Z,102104.78
2023-01-29T03:30:50.480Z,102080.69
2023-01-29T03:33:43.648Z,102113.34
2023-01-29T03:36:16.612Z,102085.72
2023-01-29T03:38:44.078Z,102256.88
2023-01-29T03:41:20.080Z,102102.88
2023-01-29T03:43:55.096Z,102106.28
2023-01-29T03:46:27.483Z,102317.06
2023-01-29T03:49:00.571Z,102317.94
2023-01-29T03:51:33.333Z,102217.44
2023-01-29T03:54:08.698Z,102242.28
2023-01-29T04:05:13.611Z,102242.25
2023-01-29T04:07:57.368Z,102182.03
2023-01-29T04:10:27.764Z,102112.44
2023-01-29T05:54:30.590Z,102134.94
2023-01-29T05:56:57.615Z,101998.31
2023-01-29T05:59:24.651Z,102134.88
2023-01-29T06:11:10.108Z,102126.25
2023-01-29T06:25:24.622Z,102041.91
2023-01-29T08:08:20.898Z,102283.94
2023-01-29T08:10:50.283Z,102289.09
2023-01-29T08:13:20.377Z,102249.56
2023-01-29T08:15:47.535Z,102220.34
2023-01-29T08:18:15.209Z,102270.13
2023-01-29T08:20:42.104Z,102259.84
2023-01-29T08:23:15.894Z,102272.69
2023-01-29T08:25:44.409Z,102270.97
2023-01-29T08:28:12.116Z,102276.09
2023-01-29T08:30:39.177Z,102275.25
2023-01-29T08:33:05.775Z,102215.09
2023-01-29T08:35:32.912Z,102239.09
2023-01-29T08:38:01.868Z,102275.16
2023-01-29T08:40:31.816Z,102277.72
2023-01-29T08:43:01.986Z,102226.16
2023-01-29T08:45:29.740Z,102264.78
2023-01-29T08:47:56.640Z,102275.88
2023-01-29T08:50:23.428Z,102239.78
2023-01-29T08:52:50.054Z,102225.13
2023-01-29T08:55:17.167Z,102265.47
2023-01-29T08:57:45.471Z,102271.47
2023-01-29T09:00:13.120Z,102227.66
2023-01-29T09:02:39.763Z,102266.25
2023-01-29T09:05:07.422Z,102271.38
2023-01-29T09:07:34.045Z,102264.47
2023-01-29T09:10:01.330Z,102261.81
2023-01-29T09:12:28.173Z,102263.53
2023-01-29T09:14:56.334Z,102274.66
2023-01-29T09:17:22.858Z,102263.41
2023-01-29T09:19:49.378Z,102249.63
2023-01-29T09:22:15.936Z,102254.69
2023-01-29T09:24:42.484Z,102234.09
2023-01-29T09:27:09.165Z,102257.97
2023-01-29T09:29:36.137Z,102248.59
2023-01-29T09:32:05.435Z,102275.94
2023-01-29T09:34:33.725Z,102266.38
2023-01-29T09:37:00.309Z,102123.94
2023-01-29T09:39:26.944Z,102245.41
2023-01-29T09:41:59.752Z,102249.69
2023-01-29T09:44:42.659Z,102239.22
2023-01-29T09:47:14.428Z,102248.69
2023-01-29T09:49:45.866Z,102234.72
2023-01-29T09:52:18.975Z,102223.44
2023-01-29T09:54:54.629Z,102220.69
2023-01-29T09:57:25.847Z,102204.25
2023-01-29T09:59:53.983Z,102204.13
2023-01-29T10:02:42.973Z,102220.22
2023-01-29T10:05:24.552Z,102214.00
2023-01-29T10:08:13.240Z,102134.22
2023-01-29T10:10:49.182Z,102154.63
2023-01-29T10:13:27.231Z,102202.38
2023-01-29T10:16:08.314Z,102167.97
2023-01-29T10:19:10.524Z,102192.66
2023-01-29T10:21:56.921Z,102190.81
2023-01-29T10:24:29.673Z,102174.56
2023-01-29T10:26:57.452Z,102189.75
2023-01-29T10:29:27.243Z,102193.06
2023-01-29T10:31:56.991Z,102184.13
2023-01-29T10:34:31.355Z,102192.56
2023-01-29T10:36:59.611Z,102181.19
2023-01-29T10:39:29.633Z,102187.00
2023-01-29T10:42:13.194Z,102182.56
2023-01-29T10:44:53.510Z,102171.94
2023-01-29T10:47:37.852Z,102173.31
2023-01-29T10:50:17.953Z,102166.09
2023-01-29T10:53:01.394Z,102159.84
2023-01-29T10:55:41.460Z,102159.56
2023-01-29T10:58:19.224Z,102138.78
2023-01-29T11:00:46.105Z,102106.91
2023-01-29T11:03:26.924Z,102153.56
2023-01-29T11:06:01.760Z,102004.63
2023-01-29T11:08:37.605Z,102133.25
2023-01-29T11:11:08.104Z,102141.78
2023-01-29T11:13:40.305Z,102127.22
2023-01-29T11:16:09.321Z,102124.31
2023-01-29T11:18:57.183Z,102117.22
2023-01-29T11:21:25.130Z,102120.53
2023-01-29T11:24:06.116Z,102096.84
2023-01-29T11:26:37.746Z,102109.31
2023-01-29T11:29:04.418Z,102102.41
2023-01-29T11:31:37.492Z,102097.00
2023-01-29T11:34:06.442Z,102100.16
2023-01-29T11:36:36.044Z,102088.94
2023-01-29T11:39:18.139Z,102088.16
2023-01-29T11:41:49.417Z,102085.69
2023-01-29T11:44:21.309Z,102080.91
2023-01-29T11:46:49.565Z,102055.09
2023-01-29T11:49:32.846Z,102050.50
2023-01-29T11:52:02.088Z,102065.38
2023-01-29T11:54:34.362Z,102041.72
2023-01-29T11:57:02.407Z,102058.56
2023-01-29T11:59:38.047Z,102056.69
2023-01-29T12:02:19.121Z,102041.44
2023-01-29T12:04:46.571Z,102038.66
2023-01-29T12:07:16.140Z,102029.75
2023-01-29T12:09:52.243Z,102032.91
2023-01-29T12:12:28.798Z,102019.56
2023-01-29T12:15:16.838Z,102024.50
2023-01-29T12:17:50.821Z,101989.44
2023-01-29T12:20:24.123Z,101991.13
2023-01-29T12:22:59.137Z,102013.88
2023-01-29T12:25:41.594Z,102005.00
2023-01-29T12:28:19.215Z,102013.72
2023-01-29T12:30:55.556Z,102009.69
2023-01-29T12:33:35.326Z,101972.88
2023-01-29T12:36:10.895Z,101978.09
2023-01-29T12:38:37.793Z,101944.50
2023-01-29T12:41:13.829Z,101942.56
2023-01-29T12:43:46.000Z,101978.63
2023-01-29T12:46:21.600Z,101975.59
2023-01-29T12:48:50.381Z,101958.13
2023-01-29T12:51:19.356Z,101953.75
2023-01-29T12:53:54.026Z,101952.78
2023-01-29T12:56:29.072Z,101909.75
2023-01-29T12:58:58.844Z,101880.03
2023-01-29T13:01:29.580Z,101930.88
2023-01-29T13:04:01.654Z,101926.63
2023-01-29T13:06:33.850Z,101925.06
2023-01-29T13:09:04.590Z,101921.53
2023-01-29T13:11:38.211Z,101895.56
2023-01-29T13:14:13.968Z,101918.47
2023-01-29T13:16:45.283Z,101902.78
2023-01-29T13:19:21.892Z,101905.03
2023-01-29T13:21:48.826Z,101907.69
2023-01-29T13:24:18.462Z,101909.31
2023-01-29T13:26:48.586Z,101903.59
2023-01-29T13:29:23.914Z,101901.31
2023-01-29T13:31:54.503Z,101868.38
2023-01-29T13:34:25.584Z,101884.31
2023-01-29T13:36:57.354Z,101897.56
2023-01-29T13:39:30.453Z,101889.56
2023-01-29T13:42:03.887Z,101883.41
2023-01-29T13:44:35.560Z,101868.28
2023-01-29T13:47:04.446Z,101855.38
2023-01-29T13:49:39.254Z,101875.66
2023-01-29T13:52:30.910Z,101872.13
2023-01-29T13:55:00.770Z,101870.19
2023-01-29T13:57:50.701Z,101856.50
2023-01-29T14:00:57.017Z,101842.44
2023-01-29T14:04:04.249Z,101834.38
2023-01-29T14:06:50.445Z,101842.00
2023-01-29T14:09:34.732Z,101836.09
2023-01-29T14:12:03.682Z,101834.63
2023-01-29T14:15:01.566Z,101825.16
2023-01-29T14:17:30.180Z,101829.72
2023-01-29T14:20:02.226Z,101825.66
2023-01-29T14:22:30.682Z,101825.97
2023-01-29T14:25:03.977Z,101821.31
2023-01-29T14:27:31.873Z,101797.75
2023-01-29T14:30:07.462Z,101812.56
2023-01-29T14:32:34.371Z,101810.81
2023-01-29T14:35:03.585Z,101761.94
2023-01-29T14:37:34.149Z,101818.41
2023-01-29T14:40:19.437Z,101822.97
2023-01-29T14:42:57.177Z,101831.56
2023-01-29T14:45:28.843Z,101829.75
2023-01-29T14:47:58.246Z,101830.47
2023-01-29T14:50:43.561Z,101831.25
2023-01-29T14:53:14.485Z,101805.59
2023-01-29T14:55:44.310Z,101772.69
2023-01-29T14:58:14.619Z,101837.34
2023-01-29T15:00:45.030Z,101837.78
2023-01-29T15:03:20.249Z,101834.53
2023-01-29T15:05:49.313Z,101810.19
2023-01-29T15:08:23.102Z,101840.94
2023-01-29T15:10:54.332Z,101839.38
2023-01-29T15:13:28.447Z,101844.88
2023-01-29T15:16:03.907Z,101847.63
2023-01-29T15:18:34.992Z,101842.13
2023-01-29T15:21:04.727Z,101839.13
2023-01-29T15:23:33.764Z,101841.75
2023-01-29T15:26:04.342Z,101816.69
2023-01-29T15:28:32.833Z,101844.81
2023-01-29T15:31:03.566Z,101843.09
2023-01-29T15:33:31.895Z,101847.56
2023-01-29T15:36:08.567Z,101840.63
2023-01-29T15:38:35.640Z,101846.03
2023-01-29T15:41:14.799Z,101841.66
2023-01-29T15:43:44.527Z,101838.28
2023-01-29T15:46:20.585Z,101831.69
2023-01-29T15:48:48.969Z,101842.88
2023-01-29T15:51:17.674Z,101836.03
2023-01-29T15:53:50.129Z,101817.28
2023-01-29T15:56:21.623Z,101829.28
2023-01-29T15:58:49.915Z,101827.72
2023-01-29T16:01:18.197Z,101811.75
2023-01-29T16:03:46.155Z,101825.34
2023-01-29T16:06:12.979Z,101802.59
2023-01-29T16:08:41.963Z,101805.09
2023-01-29T16:11:11.320Z,101823.97
2023-01-29T16:13:41.348Z,101821.53
2023-01-29T16:16:24.069Z,101817.44
2023-01-29T16:18:59.902Z,101821.19
2023-01-29T16:21:30.164Z,101830.16
2023-01-29T16:23:59.130Z,101821.53
2023-01-29T16:26:28.265Z,101802.81
2023-01-29T16:28:55.489Z,101794.44
2023-01-29T16:31:27.584Z,101821.78
2023-01-29T16:33:57.025Z,101819.22
2023-01-29T16:36:26.710Z,101821.84
2023-01-29T16:38:55.349Z,101823.66
2023-01-29T16:41:30.371Z,101814.88
2023-01-29T16:43:58.980Z,101793.88
2023-01-29T16:46:32.777Z,101805.03
2023-01-29T16:49:00.124Z,101815.28
2023-01-29T16:51:29.762Z,101813.53
2023-01-29T16:53:59.693Z,101815.28
2023-01-29T16:56:32.187Z,101817.13
2023-01-29T16:59:00.101Z,101817.19
2023-01-29T17:01:30.120Z,101805.31
2023-01-29T17:04:02.800Z,101809.59
2023-01-29T17:06:32.373Z,101808.53
2023-01-29T17:08:59.552Z,101757.78
2023-01-29T17:11:31.832Z,101802.09
2023-01-29T17:13:59.240Z,101812.16
2023-01-29T17:16:29.567Z,101812.44
2023-01-29T17:18:56.363Z,101814.09
2023-01-29T17:21:23.428Z,101812.44
2023-01-29T17:23:50.695Z,101807.44
2023-01-29T17:26:18.398Z,101798.31
2023-01-29T17:28:46.365Z,101819.56
2023-01-29T17:31:13.231Z,101825.63
2023-01-29T17:33:43.262Z,101822.41
2023-01-29T17:36:11.350Z,101827.59
2023-01-29T17:38:38.045Z,101810.38
2023-01-29T17:41:08.064Z,101807.59
2023-01-29T17:43:34.932Z,101807.44
2023-01-29T17:46:01.581Z,101802.34
2023-01-29T17:48:29.704Z,101800.50
2023-01-29T17:51:00.500Z,101803.22
2023-01-29T17:53:43.328Z,101798.19
2023-01-29T17:56:15.527Z,101789.53
2023-01-29T17:58:42.153Z,101776.44
2023-01-29T18:01:08.667Z,101761.53
2023-01-29T18:03:35.297Z,101751.13
2023-01-29T18:06:03.449Z,101746.03
2023-01-29T18:08:33.676Z,101745.31
2023-01-29T18:11:00.926Z,101749.69
2023-01-29T18:13:27.480Z,101748.91
2023-01-29T18:15:54.193Z,101755.88
2023-01-29T18:18:22.993Z,101744.03
2023-01-29T18:20:50.303Z,101746.00
2023-01-29T18:23:18.227Z,101745.09
2023-01-29T18:25:45.338Z,101746.72
2023-01-29T18:28:14.479Z,101743.69
2023-01-29T18:30:41.351Z,101736.63
2023-01-29T18:33:07.908Z,101735.75
2023-01-29T18:35:34.498Z,101735.19
2023-01-29T18:38:01.062Z,101744.78
2023-01-29T18:40:29.016Z,101742.44
2023-01-29T18:42:55.521Z,101738.13
2023-01-29T18:45:22.021Z,101738.06
2023-01-29T18:47:48.654Z,101736.97
2023-01-29T18:50:15.669Z,101733.75
2023-01-29T18:52:43.704Z,101736.53
2023-01-29T18:55:10.557Z,101718.47
2023-01-29T18:58:27.446Z,101729.03
2023-01-29T19:00:25.120Z,101730.66
2023-01-29T19:02:51.624Z,101699.97
2023-01-29T19:05:18.814Z,101717.31
2023-01-29T19:07:45.671Z,101665.13
2023-01-29T19:10:12.356Z,101705.09
2023-01-29T19:12:40.287Z,101703.41
2023-01-29T19:15:08.157Z,101703.28
2023-01-29T19:17:34.765Z,101694.63
2023-01-29T19:20:01.491Z,101687.50
2023-01-29T19:22:28.162Z,101685.69
2023-01-29T19:24:54.823Z,101683.84
2023-01-29T19:27:21.324Z,101676.00
2023-01-29T19:29:49.314Z,101659.03
2023-01-29T19:32:15.827Z,101662.91
2023-01-29T19:34:42.488Z,101663.19
2023-01-29T19:37:09.048Z,101656.06
2023-01-29T19:39:35.717Z,101653.63
2023-01-29T19:42:02.345Z,101622.09
2023-01-29T19:44:28.979Z,101643.53
2023-01-29T19:46:56.849Z,101650.09
2023-01-29T19:49:25.083Z,101644.16
2023-01-29T19:51:51.719Z,101638.13
2023-01-29T19:54:18.293Z,101629.41
2023-01-29T19:56:44.777Z,101628.34
2023-01-29T19:59:11.637Z,101626.13
2023-01-29T20:01:38.254Z,101620.72
2023-01-29T20:04:06.227Z,101620.53
2023-01-29T20:06:32.774Z,101628.50
2023-01-29T20:08:59.415Z,101623.22
2023-01-29T20:11:25.903Z,101616.44
2023-01-29T20:13:53.258Z,101614.53
2023-01-29T20:16:24.762Z,101616.84
2023-01-29T20:18:53.018Z,101591.59
2023-01-29T20:21:21.237Z,101609.81
2023-01-29T20:23:49.498Z,101613.53
2023-01-29T20:26:16.718Z,101609.13
2023-01-29T20:28:45.349Z,101607.91
2023-01-29T20:31:11.898Z,101606.47
2023-01-29T20:33:39.658Z,101596.06
2023-01-29T20:36:08.323Z,101595.13
2023-01-29T20:38:36.576Z,101598.41
2023-01-29T20:41:04.876Z,101588.31
2023-01-29T20:43:31.590Z,101577.84
2023-01-29T20:45:58.527Z,101574.94
2023-01-29T20:48:25.180Z,101583.50
2023-01-29T20:50:51.785Z,101570.25
2023-01-29T20:53:18.458Z,101571.41
2023-01-29T20:55:46.360Z,101553.13
2023-01-29T20:58:13.092Z,101545.91
2023-01-29T21:00:39.763Z,101535.53
2023-01-29T21:03:06.334Z,101518.31
2023-01-29T21:05:32.877Z,101524.50
2023-01-29T21:07:59.484Z,101529.94
2023-01-29T21:10:26.224Z,101514.50
2023-01-29T21:12:54.165Z,101528.84
2023-01-29T21:15:20.865Z,101521.81
2023-01-29T21:17:47.508Z,101519.13
2023-01-29T21:20:14.230Z,101512.34
2023-01-29T21:22:40.857Z,101520.81
2023-01-29T21:25:08.403Z,101514.00
2023-01-29T21:27:35.110Z,101512.13
2023-01-29T21:30:03.491Z,101494.97
2023-01-29T21:32:30.094Z,101486.72
2023-01-29T21:34:56.617Z,101498.06
2023-01-29T21:37:23.245Z,101496.50
2023-01-29T21:39:49.791Z,101507.66
2023-01-29T21:42:16.361Z,101468.94
2023-01-29T21:44:42.926Z,101470.38
2023-01-29T21:47:10.891Z,101462.00
2023-01-29T21:49:38.637Z,101478.31
2023-01-29T21:52:05.261Z,101475.06
2023-01-29T21:54:31.844Z,101482.81
2023-01-29T21:56:58.479Z,101489.34
2023-01-29T21:59:24.996Z,101479.69
2023-01-29T22:01:51.704Z,101473.63
2023-01-29T22:04:19.571Z,101442.72
2023-01-29T22:06:46.171Z,101464.09
2023-01-29T22:09:12.915Z,101466.97
2023-01-29T22:11:40.649Z,101460.06
2023-01-29T22:14:07.480Z,101465.16
2023-01-29T22:16:34.410Z,101449.78
2023-01-29T22:19:01.074Z,101474.38
2023-01-29T22:21:29.175Z,101469.81
2023-01-29T22:23:55.921Z,101453.47
2023-01-29T22:26:22.697Z,101462.81
2023-01-29T22:28:49.221Z,101465.38
2023-01-29T22:31:15.800Z,101465.31
2023-01-29T22:33:43.232Z,101473.78
2023-01-29T22:36:10.040Z,101473.84
2023-01-29T22:38:37.973Z,101469.53
2023-01-29T22:41:05.021Z,101444.97
2023-01-29T22:43:31.685Z,101466.94
2023-01-29T22:45:58.288Z,101462.72
2023-01-29T22:48:24.993Z,101465.13
2023-01-29T22:50:55.989Z,101457.19
2023-01-29T22:53:22.588Z,101449.50
2023-01-29T22:55:55.399Z,101446.28
2023-01-29T22:58:22.075Z,101454.16
2023-01-29T23:00:50.111Z,101457.38
2023-01-29T23:03:16.772Z,101416.56
2023-01-29T23:05:43.287Z,101433.50
2023-01-29T23:08:10.167Z,101431.00
2023-01-29T23:10:37.357Z,101446.09
2023-01-29T23:13:05.534Z,101437.38
2023-01-29T23:15:32.309Z,101419.50
2023-01-29T23:17:58.904Z,101408.19
2023-01-29T23:20:25.460Z,101404.72
2023-01-29T23:22:52.305Z,101411.16
2023-01-29T23:25:18.844Z,101405.59
2023-01-29T23:27:45.394Z,101406.59
2023-01-29T23:30:14.223Z,101401.34
2023-01-29T23:32:41.167Z,101387.22
2023-01-29T23:35:08.462Z,101370.75
2023-01-29T23:37:35.027Z,101375.06
2023-01-29T23:40:01.609Z,101377.72
2023-01-29T23:42:28.465Z,101361.97
2023-01-29T23:44:55.017Z,101364.56
2023-01-29T23:47:22.929Z,101350.66
2023-01-29T23:49:49.436Z,101328.06
2023-01-29T23:52:16.099Z,101330.56
2023-01-29T23:54:42.604Z,101331.81
2023-01-29T23:57:09.229Z,101320.81
2023-01-29T23:59:35.777Z,101303.97
